Time;durP1;ratioP1;P1;durP2;ratioP2;P2;SDS_P1;SDS_P2;PMS_P1;PMS_P2;Temp;Humidity;BMP_temperature;BMP_pressure;BME280_temperature;BME280_humidity;BME280_pressure;Samples;Min_cycle;Max_cycle;Signal;HPM_P1;HPM_P2
2023/01/17 00:01:15;;;;;;;11.07;7.37;;;1.00;99.90;2.00;94177.00;;;;5081134;28;20791;-62
2023/01/17 00:10:21;;;;;;;10.17;7.70;;;0.90;99.90;1.90;94159.00;;;;5081599;28;20472;-63
2023/01/17 00:13:11;;;;;;;9.87;6.60;;;0.90;99.90;1.90;94163.00;;;;5081275;28;20477;-63
2023/01/17 00:15:59;;;;;;;14.13;8.33;;;0.90;99.90;1.90;94173.00;;;;5078638;28;20415;-63
2023/01/17 01:34:42;;;;;;;8.10;5.17;;;1.00;99.90;2.10;94232.00;;;;5088553;28;20483;-63
2023/01/17 01:37:32;;;;;;;5.73;4.93;;;1.00;99.90;2.00;94234.00;;;;5077345;28;20426;-63
2023/01/17 01:40:21;;;;;;;7.87;5.70;;;1.00;99.90;1.70;94227.00;;;;5086838;28;20464;-63
2023/01/17 01:43:13;;;;;;;7.90;5.30;;;1.00;99.90;1.60;94236.00;;;;5088973;28;20449;-63
2023/01/17 01:46:02;;;;;;;8.70;5.73;;;0.90;99.90;1.60;94239.00;;;;5088085;28;20453;-63
2023/01/17 01:48:55;;;;;;;8.77;6.57;;;0.90;99.90;1.90;94245.00;;;;5081745;28;20420;-62
2023/01/17 01:51:48;;;;;;;11.70;6.23;;;0.90;99.90;2.00;94245.00;;;;5081454;28;20769;-63
2023/01/17 01:54:42;;;;;;;7.43;5.80;;;0.90;99.90;2.10;94249.00;;;;5087161;28;20510;-63
2023/01/17 01:57:38;;;;;;;8.00;4.73;;;1.00;99.90;2.00;94244.00;;;;5086999;28;20414;-63
2023/01/17 02:00:30;;;;;;;7.57;5.63;;;1.00;99.90;2.20;94252.00;;;;5089603;28;21134;-63
2023/01/17 02:03:24;;;;;;;9.87;5.93;;;1.20;99.90;2.00;94255.00;;;;5079251;28;20445;-63
2023/01/17 02:06:37;;;;;;;7.30;5.27;;;1.00;99.90;2.00;94257.00;;;;5093496;28;20426;-63
2023/01/17 02:09:27;;;;;;;11.13;5.90;;;1.10;99.90;1.80;94253.00;;;;5089498;28;20490;-63
2023/01/17 02:12:17;;;;;;;13.43;5.93;;;1.10;99.90;2.00;94259.00;;;;5082346;28;20527;-63
2023/01/17 02:15:08;;;;;;;9.97;4.97;;;1.10;99.90;1.90;94258.00;;;;5085660;28;20487;-62
2023/01/17 02:18:11;;;;;;;9.70;5.57;;;1.00;99.90;1.80;94262.00;;;;5080261;28;20429;-63
2023/01/17 02:21:23;;;;;;;8.30;4.67;;;1.00;99.90;1.80;94259.00;;;;5092005;28;20418;-63
2023/01/17 02:24:49;;;;;;;9.10;5.20;;;1.00;99.90;2.00;94269.00;;;;5091290;28;20459;-64
2023/01/17 02:27:55;;;;;;;7.57;5.50;;;1.00;99.90;2.10;94261.00;;;;5074836;28;20436;-63
2023/01/17 02:30:50;;;;;;;5.87;4.00;;;1.00;99.90;2.20;94266.00;;;;5093024;28;20903;-63
2023/01/17 02:33:48;;;;;;;5.00;4.40;;;1.10;99.90;2.20;94259.00;;;;5091683;28;20472;-63
2023/01/17 02:36:43;;;;;;;5.33;4.40;;;1.10;99.90;2.30;94256.00;;;;5090486;28;20437;-63
2023/01/17 02:39:39;;;;;;;5.73;4.27;;;1.10;99.90;2.40;94261.00;;;;5086674;28;20425;-62
2023/01/17 02:42:33;;;;;;;4.90;3.80;;;1.20;99.90;2.30;94251.00;;;;5082769;28;20445;-62
2023/01/17 02:45:22;;;;;;;8.50;5.17;;;1.20;99.90;2.40;94264.00;;;;5090469;28;20450;-63
2023/01/17 02:48:16;;;;;;;4.07;3.27;;;1.10;99.90;2.20;94254.00;;;;5090919;28;20426;-63
2023/01/17 02:51:37;;;;;;;6.20;4.70;;;1.20;99.90;2.10;94252.00;;;;5091241;28;20418;-62
2023/01/17 02:55:03;;;;;;;7.97;3.90;;;1.20;99.90;2.10;94256.00;;;;5087049;28;20511;-62
2023/01/17 02:58:07;;;;;;;7.90;4.67;;;1.20;99.90;2.10;94248.00;;;;5090805;28;20471;-63
2023/01/17 03:01:09;;;;;;;4.63;4.07;;;1.10;99.90;2.30;94250.00;;;;5091777;28;20418;-63
2023/01/17 03:04:04;;;;;;;3.53;3.03;;;1.20;99.90;2.30;94248.00;;;;5090343;28;20481;-63
2023/01/17 03:06:56;;;;;;;5.83;3.73;;;1.20;99.90;2.30;94255.00;;;;5091457;28;20892;-63
2023/01/17 03:09:48;;;;;;;3.13;2.80;;;1.20;99.90;2.20;94262.00;;;;5090229;28;20475;-63
2023/01/17 03:12:39;;;;;;;6.53;4.67;;;1.20;99.90;1.80;94251.00;;;;5115377;22;20869;-66
2023/01/17 03:15:28;;;;;;;5.40;3.83;;;1.20;99.90;1.60;94263.00;;;;5074773;28;20484;-66
2023/01/17 03:18:17;;;;;;;7.20;4.13;;;1.10;99.90;1.90;94265.00;;;;5086793;28;20460;-66
2023/01/17 03:21:07;;;;;;;5.37;3.80;;;1.10;99.90;2.20;94262.00;;;;5091373;28;20535;-66
2023/01/17 03:23:56;;;;;;;11.63;4.23;;;1.10;99.90;2.30;94269.00;;;;5077887;28;20796;-66
2023/01/17 03:26:46;;;;;;;5.87;4.13;;;1.10;99.90;2.30;94264.00;;;;5051026;28;20412;-67
2023/01/17 03:29:35;;;;;;;5.37;3.20;;;1.20;99.90;2.00;94262.00;;;;5069416;28;20834;-66
2023/01/17 03:32:24;;;;;;;0.97;0.97;;;1.10;99.90;1.50;94271.00;;;;5071283;28;20419;-67
2023/01/17 03:35:12;;;;;;;6.40;3.87;;;1.10;99.90;1.40;94268.00;;;;5060775;28;20463;-66
2023/01/17 03:38:02;;;;;;;6.43;3.70;;;0.90;99.90;1.70;94261.00;;;;5060464;28;20527;-65
2023/01/17 03:40:51;;;;;;;4.60;3.17;;;1.00;99.90;2.10;94280.00;;;;5058903;28;20423;-65
2023/01/17 03:43:40;;;;;;;4.63;3.40;;;1.00;99.90;2.20;94275.00;;;;5050410;28;20435;-66
2023/01/17 03:46:28;;;;;;;4.73;3.93;;;1.00;99.90;2.20;94278.00;;;;5068506;28;20566;-66
2023/01/17 03:49:17;;;;;;;4.70;3.70;;;1.10;99.90;2.30;94274.00;;;;5070790;28;20777;-66
2023/01/17 03:52:06;;;;;;;8.23;4.47;;;1.10;99.90;2.20;94268.00;;;;5060962;28;20420;-66
2023/01/17 03:54:57;;;;;;;4.13;3.37;;;1.10;99.90;2.20;94267.00;;;;5074636;28;21053;-65
2023/01/17 03:57:45;;;;;;;3.73;2.90;;;1.10;99.90;1.90;94266.00;;;;5065055;28;20418;-65
2023/01/17 04:00:35;;;;;;;3.27;2.97;;;1.20;99.90;1.60;94260.00;;;;5050077;28;20423;-66
2023/01/17 04:03:24;;;;;;;3.57;3.17;;;1.00;99.90;1.60;94265.00;;;;5049534;28;20831;-66
2023/01/17 04:06:13;;;;;;;4.97;3.47;;;0.90;99.90;1.70;94265.00;;;;5049571;28;20423;-65
2023/01/17 04:09:01;;;;;;;7.23;3.67;;;0.90;99.90;1.90;94257.00;;;;5049401;28;20497;-65
2023/01/17 04:11:52;;;;;;;7.43;4.03;;;1.00;99.90;2.00;94254.00;;;;5057978;28;20487;-66
2023/01/17 04:14:40;;;;;;;5.80;4.60;;;1.00;99.90;1.70;94260.00;;;;5050505;28;20471;-66
2023/01/17 04:17:29;;;;;;;4.67;4.03;;;1.00;99.90;1.60;94261.00;;;;5048902;28;20466;-66
2023/01/17 04:20:36;;;;;;;3.67;3.07;;;0.90;99.90;1.90;94271.00;;;;5050157;28;20427;-66
2023/01/17 04:23:24;;;;;;;4.57;3.40;;;1.00;99.90;2.00;94272.00;;;;5049700;28;21009;-66
2023/01/17 04:26:13;;;;;;;4.47;2.97;;;1.00;99.90;2.10;94272.00;;;;5049670;28;20485;-66
2023/01/17 04:29:06;;;;;;;3.67;3.27;;;1.00;99.90;2.10;94266.00;;;;5049402;28;20459;-66
2023/01/17 04:31:55;;;;;;;4.87;3.10;;;1.00;99.90;2.10;94265.00;;;;5049021;28;20431;-66
2023/01/17 04:34:43;;;;;;;4.43;3.20;;;1.00;99.90;1.90;94264.00;;;;5059210;28;20544;-66
2023/01/17 04:37:32;;;;;;;4.20;3.27;;;1.00;99.90;1.70;94272.00;;;;5058332;28;20457;-66
2023/01/17 04:40:21;;;;;;;4.47;3.40;;;1.00;99.90;1.90;94266.00;;;;5061797;28;20451;-66
2023/01/17 04:43:09;;;;;;;3.90;3.47;;;1.00;99.90;2.00;94259.00;;;;5070454;28;20940;-66
2023/01/17 04:46:00;;;;;;;5.53;2.57;;;0.90;99.90;2.00;94253.00;;;;5067440;28;20991;-66
2023/01/17 04:48:48;;;;;;;4.70;2.73;;;0.90;99.90;1.60;94252.00;;;;5069018;28;20415;-67
2023/01/17 04:51:37;;;;;;;3.10;2.87;;;0.90;99.90;1.60;94267.00;;;;5069552;28;20480;-67
2023/01/17 04:54:26;;;;;;;4.03;3.07;;;0.90;99.90;1.60;94266.00;;;;5070076;28;20516;-67
2023/01/17 04:57:15;;;;;;;4.63;2.13;;;0.90;99.90;1.60;94271.00;;;;5069491;28;20954;-67
2023/01/17 05:00:04;;;;;;;4.10;2.83;;;0.90;99.90;1.80;94284.00;;;;5069183;28;20419;-67
2023/01/17 05:02:55;;;;;;;2.60;2.40;;;0.80;99.90;1.70;94288.00;;;;5069108;28;21234;-67
2023/01/17 05:05:43;;;;;;;1.63;1.50;;;0.80;99.90;1.40;94276.00;;;;5074530;28;20418;-66
2023/01/17 05:08:32;;;;;;;4.00;2.80;;;0.70;99.90;1.40;94281.00;;;;5066980;28;20427;-66
2023/01/17 05:11:21;;;;;;;2.87;2.67;;;0.70;99.90;1.60;94290.00;;;;5081547;28;20422;-67
2023/01/17 05:14:10;;;;;;;2.50;2.00;;;0.60;99.90;1.30;94276.00;;;;5074274;28;20457;-67
2023/01/17 05:16:59;;;;;;;2.53;2.33;;;0.80;99.90;1.10;94273.00;;;;5062668;28;20450;-66
2023/01/17 05:19:49;;;;;;;3.60;2.63;;;0.50;99.90;1.00;94281.00;;;;5050936;28;20460;-67
2023/01/17 05:22:38;;;;;;;1.50;1.40;;;0.40;99.90;0.70;94279.00;;;;5066627;28;20484;-67
2023/01/17 05:25:29;;;;;;;3.67;2.97;;;0.40;99.90;0.90;94293.00;;;;5071656;28;20899;-67
2023/01/17 05:28:18;;;;;;;2.70;2.33;;;0.30;99.90;0.80;94287.00;;;;5068131;28;20519;-66
2023/01/17 05:31:07;;;;;;;3.13;2.57;;;0.30;99.90;1.00;94300.00;;;;5065108;28;20438;-66
2023/01/17 05:33:55;;;;;;;2.53;2.33;;;0.30;99.90;1.10;94307.00;;;;5064293;28;20819;-66
2023/01/17 05:36:45;;;;;;;3.27;2.50;;;0.30;99.90;1.30;94313.00;;;;5059498;28;20461;-67
2023/01/17 05:39:34;;;;;;;3.03;2.80;;;0.30;99.90;1.40;94324.00;;;;5068571;28;20506;-67
2023/01/17 05:42:23;;;;;;;2.13;2.03;;;0.40;99.90;1.50;94327.00;;;;5067044;28;20441;-67
2023/01/17 05:45:15;;;;;;;1.90;1.70;;;0.40;99.90;1.50;94324.00;;;;5066872;28;20435;-67
2023/01/17 05:48:05;;;;;;;2.10;1.90;;;0.40;99.90;1.60;94315.00;;;;5063349;28;20794;-67
2023/01/17 05:50:54;;;;;;;3.37;2.37;;;0.50;99.90;1.70;94329.00;;;;5068053;28;20440;-67
2023/01/17 05:53:44;;;;;;;2.77;2.13;;;0.50;99.90;1.30;94345.00;;;;5072629;28;20446;-68
2023/01/17 05:56:33;;;;;;;1.67;1.40;;;0.50;99.90;0.70;94360.00;;;;5070475;28;20558;-66
2023/01/17 05:59:21;;;;;;;3.03;2.47;;;0.40;99.90;0.70;94371.00;;;;5066752;28;20423;-68
2023/01/17 06:02:23;;;;;;;2.93;2.30;;;0.40;99.90;1.20;94374.00;;;;5052424;28;20419;-67
2023/01/17 06:05:12;;;;;;;2.37;2.17;;;0.30;99.90;1.50;94378.00;;;;5052139;28;20458;-68
2023/01/17 06:08:01;;;;;;;2.50;2.30;;;0.30;99.90;1.50;94386.00;;;;5059048;28;20473;-67
2023/01/17 06:10:51;;;;;;;3.00;2.70;;;0.40;99.90;1.60;94386.00;;;;5078594;28;20406;-67
2023/01/17 06:13:40;;;;;;;2.73;2.47;;;0.50;99.90;1.70;94389.00;;;;5072820;28;20453;-68
2023/01/17 06:16:29;;;;;;;3.83;3.47;;;0.60;99.90;1.70;94393.00;;;;5052869;28;20459;-67
2023/01/17 06:19:18;;;;;;;4.90;2.47;;;0.60;99.90;1.80;94403.00;;;;5059843;28;20423;-67
2023/01/17 06:22:07;;;;;;;3.83;2.60;;;0.60;99.90;1.80;94403.00;;;;5072050;28;20418;-68
2023/01/17 06:24:55;;;;;;;2.10;2.00;;;0.70;99.90;1.80;94404.00;;;;5071944;28;20446;-67
2023/01/17 06:27:45;;;;;;;3.13;2.83;;;0.70;99.90;1.90;94407.00;;;;5062896;28;20422;-67
2023/01/17 06:30:34;;;;;;;2.73;2.53;;;0.70;99.90;1.90;94406.00;;;;5064539;28;20443;-68
2023/01/17 06:33:24;;;;;;;2.03;1.77;;;0.80;99.90;1.80;94409.00;;;;5062268;28;20457;-68
2023/01/17 06:36:12;;;;;;;2.63;2.43;;;0.70;99.90;1.80;94412.00;;;;5061119;28;20478;-68
2023/01/17 06:39:01;;;;;;;4.20;2.40;;;0.80;99.90;1.90;94421.00;;;;5060494;28;20450;-67
2023/01/17 06:41:50;;;;;;;3.30;2.73;;;0.80;99.90;1.90;94419.00;;;;5059792;28;20451;-67
2023/01/17 06:44:40;;;;;;;3.37;2.40;;;0.80;99.90;2.00;94416.00;;;;5059280;28;20840;-68
2023/01/17 06:47:28;;;;;;;3.43;2.53;;;0.80;99.90;1.90;94413.00;;;;5061544;28;20469;-68
2023/01/17 06:50:17;;;;;;;2.87;2.53;;;0.80;99.90;1.80;94412.00;;;;5066352;28;20437;-66
2023/01/17 06:53:08;;;;;;;2.33;2.13;;;0.80;99.90;1.40;94407.00;;;;5060955;28;20467;-66
2023/01/17 06:55:57;;;;;;;4.07;3.03;;;0.80;99.90;1.20;94415.00;;;;5068434;28;20453;-67
2023/01/17 06:58:49;;;;;;;7.70;3.03;;;0.70;99.90;1.30;94414.00;;;;5051463;28;20487;-67
2023/01/17 07:01:40;;;;;;;4.23;3.83;;;0.60;99.90;1.30;94422.00;;;;5052285;28;20434;-67
2023/01/17 07:04:29;;;;;;;6.13;4.10;;;0.60;99.90;1.40;94425.00;;;;5050717;28;20443;-67
2023/01/17 07:07:17;;;;;;;7.40;2.50;;;0.60;99.90;1.30;94424.00;;;;5050739;28;20485;-68
2023/01/17 07:10:07;;;;;;;7.20;2.90;;;0.60;99.90;1.40;94423.00;;;;5050349;28;20882;-67
2023/01/17 07:12:59;;;;;;;6.90;3.47;;;0.60;99.90;1.80;94429.00;;;;5066944;28;20454;-67
2023/01/17 07:15:48;;;;;;;10.50;2.93;;;0.70;99.90;2.10;94429.00;;;;5066471;28;20980;-67
2023/01/17 07:18:38;;;;;;;4.47;3.50;;;0.80;99.90;2.10;94426.00;;;;5074962;28;20799;-66
2023/01/17 07:21:27;;;;;;;3.20;2.37;;;0.90;99.90;1.90;94427.00;;;;5072067;28;20915;-67
2023/01/17 07:24:15;;;;;;;2.60;2.40;;;0.90;99.90;1.80;94450.00;;;;5067308;28;21009;-67
2023/01/17 07:27:04;;;;;;;2.83;2.63;;;0.90;99.90;1.60;94460.00;;;;5052283;28;20466;-67
2023/01/17 07:29:53;;;;;;;2.27;2.17;;;0.80;99.90;1.90;94461.00;;;;5057120;28;20426;-67
2023/01/17 07:32:42;;;;;;;3.80;2.20;;;0.90;99.90;2.00;94477.00;;;;5071180;28;21016;-67
2023/01/17 07:35:32;;;;;;;5.07;2.83;;;1.10;99.90;2.20;94484.00;;;;5070797;28;20458;-67
2023/01/17 07:38:21;;;;;;;8.73;4.53;;;1.00;99.90;2.20;94483.00;;;;5074512;28;20419;-68
2023/01/17 07:41:09;;;;;;;6.73;5.10;;;1.00;99.90;2.20;94491.00;;;;5068084;28;20418;-67
2023/01/17 07:43:59;;;;;;;4.83;3.73;;;1.00;99.90;2.30;94494.00;;;;5061862;28;20449;-67
2023/01/17 07:46:48;;;;;;;10.45;6.55;;;1.20;99.90;2.10;94489.00;;;;5074382;28;20509;-67
2023/01/17 07:49:36;;;;;;;7.70;5.13;;;1.10;99.90;2.30;94475.00;;;;5062162;28;20204;-67
2023/01/17 07:52:27;;;;;;;5.33;4.27;;;1.10;99.90;2.40;94474.00;;;;5061730;28;20446;-66
2023/01/17 07:55:16;;;;;;;6.77;5.00;;;1.10;99.90;2.50;94467.00;;;;5060373;28;20429;-67
2023/01/17 07:58:04;;;;;;;6.83;4.43;;;1.20;99.90;2.50;94473.00;;;;5049927;28;20416;-68
2023/01/17 08:00:53;;;;;;;6.80;4.17;;;1.30;99.90;2.60;94467.00;;;;5050909;28;20435;-67
2023/01/17 08:03:42;;;;;;;6.10;5.20;;;1.30;99.90;2.40;94480.00;;;;5081418;28;20881;-66
2023/01/17 08:06:31;;;;;;;8.63;5.40;;;1.40;99.90;2.40;94500.00;;;;5053703;28;20431;-67
2023/01/17 08:09:21;;;;;;;11.27;5.80;;;1.40;99.90;2.60;94495.00;;;;5059395;28;20500;-66
2023/01/17 08:12:10;;;;;;;9.20;6.10;;;1.40;99.90;2.50;94503.00;;;;5054412;28;20493;-67
2023/01/17 08:14:59;;;;;;;8.57;6.37;;;1.20;99.90;2.70;94494.00;;;;5059454;28;20423;-67
2023/01/17 08:17:51;;;;;;;10.93;6.73;;;1.40;99.90;2.80;94482.00;;;;5067664;28;21010;-67
2023/01/17 08:20:42;;;;;;;8.40;6.13;;;1.50;99.90;2.80;94487.00;;;;5062834;28;20958;-67
2023/01/17 08:23:31;;;;;;;7.13;4.73;;;1.80;99.90;2.50;94488.00;;;;5049726;28;20545;-66
2023/01/17 08:26:22;;;;;;;8.10;5.63;;;1.60;99.90;2.30;94480.00;;;;5050199;28;20830;-67
2023/01/17 08:29:11;;;;;;;6.13;4.30;;;1.50;99.90;2.20;94483.00;;;;5056110;28;20426;-66
2023/01/17 08:31:59;;;;;;;6.07;5.07;;;1.60;99.90;2.50;94480.00;;;;5069059;28;20620;-66
2023/01/17 08:34:48;;;;;;;9.13;5.07;;;1.50;99.90;2.60;94480.00;;;;5057255;28;20515;-67
2023/01/17 08:37:37;;;;;;;7.40;6.07;;;1.50;99.90;2.70;94485.00;;;;5060736;28;21020;-67
2023/01/17 08:40:26;;;;;;;8.90;6.47;;;1.90;99.90;3.00;94501.00;;;;5068957;28;20941;-67
2023/01/17 08:43:16;;;;;;;7.83;5.87;;;1.80;99.90;2.90;94488.00;;;;5064515;28;20505;-67
2023/01/17 08:46:05;;;;;;;7.77;6.23;;;1.70;99.90;2.80;94491.00;;;;5056312;28;20793;-66
2023/01/17 08:48:57;;;;;;;8.63;5.60;;;1.80;99.90;2.80;94504.00;;;;5052696;28;20419;-67
2023/01/17 08:51:46;;;;;;;6.30;4.67;;;1.80;99.90;2.70;94496.00;;;;5060562;28;20435;-66
2023/01/17 08:54:34;;;;;;;6.57;5.13;;;1.70;99.90;2.60;94502.00;;;;5058230;28;20426;-67
2023/01/17 08:57:23;;;;;;;7.90;5.60;;;1.70;99.90;2.80;94498.00;;;;5057868;28;20527;-67
2023/01/17 09:00:15;;;;;;;6.63;5.17;;;1.70;99.90;3.00;94496.00;;;;5056982;28;20410;-67
2023/01/17 09:03:03;;;;;;;9.03;6.43;;;1.70;99.90;2.90;94509.00;;;;5054845;28;20446;-67
2023/01/17 09:06:01;;;;;;;8.83;6.33;;;1.80;99.90;2.80;94505.00;;;;5055332;28;20433;-67
2023/01/17 09:08:53;;;;;;;9.37;7.33;;;1.80;99.90;2.70;94502.00;;;;5065734;28;20422;-66
2023/01/17 09:11:42;;;;;;;6.90;4.83;;;1.80;99.90;2.20;94516.00;;;;5054520;28;20437;-66
2023/01/17 09:14:31;;;;;;;11.53;6.63;;;1.70;99.90;2.30;94506.00;;;;5049597;28;20508;-66
2023/01/17 09:17:21;;;;;;;10.67;6.90;;;1.60;99.90;2.50;94500.00;;;;5052533;28;20463;-67
2023/01/17 09:20:12;;;;;;;9.93;7.57;;;1.60;99.90;2.50;94511.00;;;;5060099;28;20536;-67
2023/01/17 09:23:02;;;;;;;11.40;7.57;;;1.60;99.90;3.00;94509.00;;;;5066249;28;20827;-66
2023/01/17 09:25:54;;;;;;;11.27;7.40;;;1.70;99.90;3.10;94508.00;;;;5070132;28;20940;-67
2023/01/17 09:28:43;;;;;;;16.57;9.17;;;1.80;99.90;3.00;94508.00;;;;5070777;28;20977;-67
2023/01/17 09:31:31;;;;;;;12.00;8.37;;;1.80;99.90;2.90;94511.00;;;;5072994;28;20423;-66
2023/01/17 09:34:24;;;;;;;12.57;6.97;;;1.90;99.90;3.10;94495.00;;;;5073130;28;20438;-67
2023/01/17 09:37:13;;;;;;;14.17;8.60;;;1.90;99.90;3.20;94482.00;;;;5054114;28;20494;-66
2023/01/17 09:40:02;;;;;;;11.00;7.60;;;2.00;99.90;3.00;94468.00;;;;5062982;28;20412;-67
2023/01/17 09:42:53;;;;;;;11.77;9.70;;;1.90;99.90;2.90;94468.00;;;;5056433;28;20422;-67
2023/01/17 09:45:42;;;;;;;11.60;7.87;;;2.10;99.90;3.00;94462.00;;;;5065571;28;20422;-66
2023/01/17 09:48:37;;;;;;;11.37;7.60;;;2.10;99.90;3.00;94463.00;;;;5056446;28;20431;-66
2023/01/17 09:51:27;;;;;;;9.87;7.73;;;2.00;99.90;2.70;94439.00;;;;5056881;28;20431;-66
2023/01/17 09:54:23;;;;;;;12.20;8.90;;;2.00;99.90;3.20;94422.00;;;;5057511;28;20826;-67
2023/01/17 09:57:33;;;;;;;13.20;9.40;;;2.10;99.90;2.70;94445.00;;;;5059263;28;20572;-66
2023/01/17 10:00:42;;;;;;;11.83;8.60;;;2.00;99.90;2.70;94445.00;;;;5064547;28;20458;-66
2023/01/17 10:03:43;;;;;;;14.43;9.27;;;1.90;99.90;3.00;94451.00;;;;5074510;28;20994;-67
2023/01/17 10:06:50;;;;;;;15.23;9.40;;;1.90;99.90;3.00;94442.00;;;;5061606;28;20426;-66
2023/01/17 10:10:03;;;;;;;13.03;8.83;;;1.90;99.90;3.40;94442.00;;;;5067840;28;20446;-66
2023/01/17 10:13:00;;;;;;;19.03;10.37;;;2.00;99.90;3.20;94429.00;;;;5066572;28;20458;-66
2023/01/17 10:16:14;;;;;;;12.93;9.07;;;2.20;99.90;3.30;94423.00;;;;5060323;28;20461;-66
2023/01/17 10:19:19;;;;;;;12.17;8.23;;;2.20;99.90;3.30;94422.00;;;;5050119;28;20426;-65
2023/01/17 10:22:53;;;;;;;9.70;7.90;;;2.20;99.90;3.20;94437.00;;;;5065386;28;20423;-66
2023/01/17 10:25:47;;;;;;;9.07;7.27;;;2.20;99.90;3.10;94434.00;;;;5052421;28;20423;-66
2023/01/17 10:28:45;;;;;;;10.17;7.00;;;2.20;99.90;3.00;94426.00;;;;5051642;28;20435;-66
2023/01/17 10:31:41;;;;;;;10.87;7.20;;;2.10;99.90;3.10;94435.00;;;;5052102;28;20438;-66
2023/01/17 10:34:39;;;;;;;9.90;5.67;;;2.10;99.90;2.90;94439.00;;;;5059789;28;20442;-65
2023/01/17 10:37:40;;;;;;;7.63;5.73;;;2.20;99.90;2.80;94452.00;;;;5052970;28;20501;-66
2023/01/17 10:40:41;;;;;;;8.23;6.83;;;2.20;99.90;3.00;94433.00;;;;5051637;28;20529;-66
2023/01/17 10:43:44;;;;;;;9.13;6.33;;;2.10;99.90;3.40;94432.00;;;;5058717;28;20534;-66
2023/01/17 10:46:39;;;;;;;9.50;7.10;;;2.30;99.90;3.60;94425.00;;;;5058755;28;20657;-66
2023/01/17 10:49:28;;;;;;;11.93;6.90;;;2.20;99.90;3.40;94432.00;;;;5071420;28;20204;-66
2023/01/17 10:52:29;;;;;;;7.87;6.40;;;2.20;99.90;3.40;94424.00;;;;5068700;28;20447;-66
2023/01/17 10:55:33;;;;;;;8.37;6.40;;;2.30;99.90;3.60;94427.00;;;;5051974;28;20426;-66
2023/01/17 10:58:21;;;;;;;8.93;5.53;;;2.30;99.90;3.70;94434.00;;;;5056647;28;20459;-65
2023/01/17 11:01:18;;;;;;;7.37;5.80;;;2.30;99.90;3.70;94423.00;;;;5063670;28;20435;-66
2023/01/17 11:04:20;;;;;;;6.93;4.97;;;2.40;99.90;3.80;94424.00;;;;5051481;28;20439;-66
2023/01/17 11:07:15;;;;;;;6.40;4.83;;;2.40;99.90;3.90;94414.00;;;;5050635;28;21392;-65
2023/01/17 11:10:06;;;;;;;6.77;5.13;;;2.50;99.90;4.00;94405.00;;;;5056318;28;20193;-66
2023/01/17 11:12:55;;;;;;;6.70;5.77;;;2.50;99.90;4.00;94398.00;;;;5066167;28;20454;-66
2023/01/17 11:15:49;;;;;;;8.70;6.33;;;2.60;99.90;4.00;94394.00;;;;5059260;28;20419;-66
2023/01/17 11:18:39;;;;;;;7.13;5.37;;;2.70;99.90;4.00;94384.00;;;;5050230;28;20450;-65
2023/01/17 11:21:28;;;;;;;6.50;5.03;;;2.70;99.90;3.80;94377.00;;;;5066331;28;20703;-65
2023/01/17 11:24:26;;;;;;;7.23;5.33;;;2.70;99.90;3.80;94367.00;;;;5060081;28;20487;-66
2023/01/17 11:27:26;;;;;;;6.70;4.90;;;2.70;99.90;3.80;94355.00;;;;5049649;28;20709;-66
2023/01/17 11:30:17;;;;;;;6.63;4.87;;;2.70;99.90;3.60;94350.00;;;;5051359;28;20830;-66
2023/01/17 11:33:28;;;;;;;9.73;5.83;;;2.70;99.90;3.60;94352.00;;;;5055871;28;20220;-66
2023/01/17 11:36:21;;;;;;;9.07;5.67;;;2.60;99.90;3.50;94349.00;;;;5057276;28;20257;-66
2023/01/17 11:39:26;;;;;;;9.40;7.03;;;2.60;99.90;3.50;94335.00;;;;5056551;28;20224;-66
2023/01/17 11:42:34;;;;;;;6.73;5.73;;;2.50;99.90;3.50;94323.00;;;;5059608;28;20826;-66
2023/01/17 11:45:29;;;;;;;7.40;6.07;;;2.60;99.90;3.40;94306.00;;;;5061545;28;20304;-66
2023/01/17 11:48:18;;;;;;;8.10;6.50;;;2.50;99.90;3.40;94300.00;;;;5069904;28;21016;-65
2023/01/17 11:51:21;;;;;;;9.40;5.37;;;2.50;99.90;3.40;94297.00;;;;5074379;28;20428;-66
2023/01/17 11:54:19;;;;;;;7.07;5.00;;;2.50;99.90;3.50;94310.00;;;;5052148;28;20957;-66
2023/01/17 11:57:21;;;;;;;5.10;4.37;;;2.50;99.90;3.30;94325.00;;;;5052317;28;20949;-66
2023/01/17 12:00:20;;;;;;;6.30;4.87;;;2.50;99.90;3.20;94318.00;;;;5063521;28;20546;-66
2023/01/17 12:03:23;;;;;;;6.73;5.00;;;2.40;99.90;3.50;94306.00;;;;5056223;28;20446;-65
2023/01/17 12:06:21;;;;;;;6.57;5.30;;;2.40;99.90;3.80;94306.00;;;;5051935;28;20432;-66
2023/01/17 12:09:21;;;;;;;7.73;5.00;;;2.50;99.90;3.60;94295.00;;;;5057944;28;20427;-67
2023/01/17 12:15:46;;;;;;;5.83;5.07;;;2.40;99.90;3.20;94292.00;;;;5050774;28;20458;-66
2023/01/17 12:18:45;;;;;;;5.87;5.10;;;2.40;99.90;3.40;94284.00;;;;5047901;28;20475;-67
2023/01/17 12:21:45;;;;;;;6.03;4.80;;;2.40;99.90;3.40;94286.00;;;;5062851;28;20441;-66
2023/01/17 12:24:59;;;;;;;6.23;5.63;;;2.30;99.90;3.40;94296.00;;;;5050809;28;20874;-67
2023/01/17 12:28:07;;;;;;;9.03;3.67;;;2.30;99.90;3.30;94293.00;;;;5070413;28;20421;-67
2023/01/17 12:31:13;;;;;;;4.87;4.43;;;2.40;99.90;3.30;94298.00;;;;5068451;28;20801;-67
2023/01/17 12:34:19;;;;;;;4.57;3.60;;;2.30;99.90;3.00;94306.00;;;;5059331;28;20442;-66
2023/01/17 12:37:18;;;;;;;4.50;4.10;;;2.30;99.90;3.10;94293.00;;;;5051666;28;20492;-67
2023/01/17 12:40:21;;;;;;;4.37;3.97;;;2.20;99.90;3.40;94295.00;;;;5050725;28;20432;-67
2023/01/17 12:43:20;;;;;;;9.20;6.43;;;2.30;99.90;3.50;94290.00;;;;5052266;28;20532;-66
2023/01/17 12:46:22;;;;;;;6.73;4.33;;;2.40;99.90;3.40;94281.00;;;;5055561;28;20420;-66
2023/01/17 12:49:24;;;;;;;6.77;4.10;;;2.40;99.90;3.50;94276.00;;;;5054671;28;20441;-66
2023/01/17 12:52:21;;;;;;;4.80;4.33;;;2.40;99.90;3.10;94260.00;;;;5060062;28;20421;-67
2023/01/17 12:55:19;;;;;;;5.20;4.13;;;2.40;99.90;3.20;94271.00;;;;5067671;28;20516;-66
2023/01/17 12:58:16;;;;;;;5.37;4.20;;;2.30;99.90;3.20;94264.00;;;;5054811;28;20463;-67
2023/01/17 13:01:19;;;;;;;6.47;3.73;;;2.30;99.90;3.10;94269.00;;;;5061158;28;20439;-67
2023/01/17 13:04:20;;;;;;;9.57;5.87;;;2.30;99.90;3.40;94274.00;;;;5050126;28;20439;-66
2023/01/17 13:07:21;;;;;;;11.00;5.93;;;2.40;99.90;3.40;94263.00;;;;5048810;28;20427;-66
2023/01/17 13:10:28;;;;;;;3.17;2.97;;;2.40;99.90;3.20;94240.00;;;;5063368;28;20448;-68
2023/01/17 13:13:23;;;;;;;5.63;3.87;;;2.40;99.90;3.30;94242.00;;;;5055686;28;20477;-67
2023/01/17 13:16:16;;;;;;;7.00;4.07;;;2.40;99.90;3.30;94243.00;;;;5062901;28;20446;-66
2023/01/17 13:19:16;;;;;;;5.53;3.93;;;2.40;99.90;3.30;94232.00;;;;5057826;28;20223;-67
2023/01/17 13:22:09;;;;;;;4.30;3.37;;;2.40;99.90;3.70;94232.00;;;;5050469;28;20443;-66
2023/01/17 13:25:12;;;;;;;6.43;4.50;;;2.40;99.90;3.80;94229.00;;;;5060230;28;20423;-66
2023/01/17 13:28:18;;;;;;;5.20;3.73;;;2.50;99.90;3.70;94228.00;;;;5054737;28;20450;-66
2023/01/17 13:31:33;;;;;;;5.43;3.73;;;2.50;99.90;3.80;94213.00;;;;5055926;28;20525;-66
2023/01/17 13:34:48;;;;;;;5.17;4.10;;;2.50;99.90;4.00;94200.00;;;;5054525;28;20446;-67
2023/01/17 13:38:04;;;;;;;5.73;4.07;;;2.60;99.90;4.00;94191.00;;;;5051888;28;20435;-66
2023/01/17 13:40:57;;;;;;;7.80;5.43;;;2.60;99.90;4.10;94191.00;;;;5058484;28;20251;-66
2023/01/17 13:44:20;;;;;;;7.63;5.00;;;2.70;99.90;4.00;94180.00;;;;5057821;28;20224;-67
2023/01/17 13:47:03;;;;;;;5.60;3.73;;;2.70;99.90;3.90;94168.00;;;;5060020;28;20434;-66
2023/01/17 13:49:55;;;;;;;5.07;3.20;;;2.80;99.90;3.70;94158.00;;;;5059389;28;21267;-66
2023/01/17 13:52:45;;;;;;;2.60;2.30;;;2.70;99.90;3.50;94136.00;;;;5059385;28;20201;-66
2023/01/17 13:55:46;;;;;;;5.37;3.17;;;2.70;99.90;3.50;94140.00;;;;5059431;28;20434;-66
2023/01/17 13:58:59;;;;;;;4.80;3.63;;;2.60;99.90;3.50;94142.00;;;;5059559;28;20457;-66
2023/01/17 14:01:55;;;;;;;5.33;4.40;;;2.60;99.90;3.60;94136.00;;;;5060136;28;20195;-67
2023/01/17 14:05:09;;;;;;;5.03;4.20;;;2.60;99.90;3.40;94131.00;;;;5060505;28;20462;-66
2023/01/17 14:08:02;;;;;;;5.17;4.10;;;2.60;99.90;3.50;94126.00;;;;5060207;28;20200;-67
2023/01/17 14:10:54;;;;;;;5.63;4.10;;;2.60;99.90;3.60;94115.00;;;;5057702;28;20450;-66
2023/01/17 14:13:42;;;;;;;3.70;3.40;;;2.60;99.90;3.70;94123.00;;;;5063016;28;20997;-66
2023/01/17 14:16:31;;;;;;;5.80;4.83;;;2.60;99.90;3.90;94106.00;;;;5069458;28;20899;-67
2023/01/17 14:19:26;;;;;;;4.50;3.90;;;2.70;99.90;4.00;94086.00;;;;5056887;28;21023;-66
2023/01/17 14:22:24;;;;;;;9.60;5.07;;;2.70;99.90;4.10;94082.00;;;;5061388;28;20216;-66
2023/01/17 14:25:17;;;;;;;5.90;4.27;;;2.80;99.90;4.10;94063.00;;;;5062969;28;20204;-66
2023/01/17 14:28:22;;;;;;;6.23;5.60;;;2.80;99.90;3.90;94061.00;;;;5070252;28;20199;-66
2023/01/17 14:31:12;;;;;;;15.90;14.40;;;3.00;99.90;3.80;94055.00;;;;5053219;28;20471;-67
2023/01/17 14:34:12;;;;;;;6.77;5.97;;;2.70;99.90;3.80;94054.00;;;;5062024;28;20446;-66
2023/01/17 14:37:09;;;;;;;7.80;4.40;;;2.80;99.90;3.80;94056.00;;;;5065186;28;20438;-67